Sunapee, NH

5:17 AM EST on February 14, 2016 (GMT -0500)
Job's Creek Lake Sunapee | | Change Station
CLOSE
Current Station
Personal Weather Station
Location: Sunapee, NH
Elevation: 1093 ft
Nearby Weather Stations
Active Advisory: Wind Chill Warning

Elev 1093 ft 43.41 °N, 72.06 °W | Updated 13 minutes ago

Clear
Clear
-18.4 °F
Feels Like -18 °F
N
2.2
Wind Variable Wind from NNE

Today
High -- | Low -- °F
--% Chance of Precip.
Yesterday
High -- | Low -- °F
Precip. -- in
Pressure 30.39 in
Visibility 9.0 miles
Clouds Clear
Windchill -18 °F
Dew Point -25 °F
Humidity 71%
Rainfall 0.00 in
Snow Depth Not available.
6:48 AM 5:16 PM
Waxing Crescent, 40% visible
METAR KLEB 140953Z AUTO 01008KT 9SM -SN CLR M26/M32 A3030 RMK AO2 SLP291 P0000 T12561317
Pressure 30.39 in
Visibility 9.0 miles
Clouds Clear
Windchill -18 °F
Dew Point -25 °F
Humidity 71%
Rainfall 0.00 in
Snow Depth Not available.
6:48 AM 5:16 PM
Waxing Crescent, 40% visible
METAR KLEB 140953Z AUTO 01008KT 9SM -SN CLR M26/M32 A3030 RMK AO2 SLP291 P0000 T12561317

10-Day Weather Forecast

Almanac

Astronomy

Feb. 14, 2016 Rise Set
Actual Time
Civil Twilight
Nautical Twilight
Astronomical Twilight
Moon
Length of Visible Light
Length of Day
Tomorrow will be .
, % of the Moon is Illuminated

Today's Extremes

State Highs State Lows

Community

WunderPhotos

Upload Photos

1,892,765 photos uploaded!

WunderBlog® & News

Nearby

Air Quality

  Air Quality AQ Index Pollutant
Not available.

Snow Depth

Station Depth Elevation

Earthquake Activity

City Distance Mag. Time & Date
Minimum magnitude displayed is 2.5.

Coastal Water Temperatures

Place Temperature

Stations

Nearby Weather Stations

Station Location Temp. Windchill Dew Point Humidity Wind Precip. Elev Updated Type
                   

Watches & Warnings

Wind Chill Warning
Issued: 3:32 AM EST Feb. 14, 2016 – National Weather Service

... Wind chill warning remains in effect until 10 am EST this
morning...

* hazard types... dangerous wind chill readings.

* Wind chill... as low as 37 below due to temperatures 6 below to
16 below zero... and winds northwest 10 to 15 mph with gusts up
to 25 mph.

* Timing... Sunday morning.

* Impacts... frostbite and hypothermia if unprotected from the
cold.

* Winds... northwest 10 to 15 mph with gusts up to 25 mph.

* Temperatures... 6 below to 16 below zero.

Precautionary/preparedness actions...

A wind chill warning means the combination of very cold air and
strong winds will create dangerously low wind chill values. This
will result in frost bite and lead to hypothermia or death if
precautions are not taken.